Time;durP1;ratioP1;P1;durP2;ratioP2;P2;SDS_P1;SDS_P2;PMS_P1;PMS_P2;Temp;Humidity;BMP_temperature;BMP_pressure;BME280_temperature;BME280_humidity;BME280_pressure;Samples;Min_cycle;Max_cycle;Signal;HPM_P1;HPM_P2
2021/08/07 00:01:56;;;;;;;9.05;7.90;;;22.50;81.00;;;;;;5050420;28;20028;-63
2021/08/07 00:04:21;;;;;;;10.25;8.00;;;22.50;81.00;;;;;;5054931;28;20021;-63
2021/08/07 00:06:47;;;;;;;11.63;8.57;;;22.50;81.30;;;;;;5044771;28;20022;-63
2021/08/07 00:09:13;;;;;;;11.50;8.25;;;22.50;81.30;;;;;;5053765;28;20025;-63
2021/08/07 00:11:39;;;;;;;9.93;8.82;;;22.50;81.20;;;;;;5054162;28;20032;-63
2021/08/07 00:14:04;;;;;;;9.50;8.30;;;22.50;81.20;;;;;;5043414;28;20032;-63
2021/08/07 00:16:30;;;;;;;12.90;8.70;;;22.50;80.90;;;;;;5049685;28;20478;-63
2021/08/07 00:18:56;;;;;;;9.77;8.23;;;22.60;81.10;;;;;;5051802;28;20401;-63
2021/08/07 00:21:21;;;;;;;10.95;7.88;;;22.60;81.10;;;;;;5054489;28;20090;-63
2021/08/07 00:23:47;;;;;;;13.18;9.27;;;22.60;81.20;;;;;;5054254;28;20459;-63
2021/08/07 00:26:13;;;;;;;11.05;7.90;;;22.60;81.40;;;;;;5034311;28;20083;-63
2021/08/07 00:28:38;;;;;;;10.02;8.20;;;22.60;81.40;;;;;;5038276;28;20029;-63
2021/08/07 00:31:04;;;;;;;10.65;8.50;;;22.50;81.50;;;;;;5039176;28;20477;-63
2021/08/07 00:33:29;;;;;;;11.38;8.60;;;22.50;81.50;;;;;;5048273;28;20128;-63
2021/08/07 00:35:55;;;;;;;11.55;8.10;;;22.60;81.30;;;;;;5053846;28;20021;-63
2021/08/07 00:38:21;;;;;;;9.70;7.90;;;22.50;81.10;;;;;;5049266;28;20029;-63
2021/08/07 00:40:46;;;;;;;12.20;7.82;;;22.50;81.30;;;;;;5053634;28;20111;-63
2021/08/07 00:43:12;;;;;;;8.07;7.22;;;22.50;81.30;;;;;;5047639;28;20033;-63
2021/08/07 00:45:38;;;;;;;12.10;7.72;;;22.50;81.40;;;;;;5042315;28;20123;-63
2021/08/07 00:48:07;;;;;;;12.30;7.80;;;22.50;81.30;;;;;;5053371;28;20017;-63
2021/08/07 00:50:33;;;;;;;9.98;7.82;;;22.50;81.20;;;;;;5049607;28;20022;-63
2021/08/07 00:52:59;;;;;;;8.65;7.13;;;22.50;81.30;;;;;;5044860;28;20473;-63
2021/08/07 00:55:25;;;;;;;10.15;7.40;;;22.40;81.10;;;;;;5050407;28;20025;-63
2021/08/07 00:57:51;;;;;;;8.88;7.70;;;22.40;81.20;;;;;;5042662;28;20062;-63
2021/08/07 01:00:16;;;;;;;11.00;7.40;;;22.40;81.20;;;;;;5048986;28;20024;-63
2021/08/07 01:02:51;;;;;;;9.07;7.85;;;22.40;81.30;;;;;;5047388;28;20060;-63
2021/08/07 01:05:28;;;;;;;11.38;7.90;;;22.40;81.30;;;;;;5050246;28;20047;-63
2021/08/07 01:08:05;;;;;;;11.10;7.50;;;22.40;81.20;;;;;;5053144;28;20025;-63
2021/08/07 01:10:40;;;;;;;13.07;8.18;;;22.40;81.30;;;;;;5053049;28;20025;-63
2021/08/07 01:13:10;;;;;;;11.75;8.15;;;22.40;81.20;;;;;;5048740;28;20029;-63
2021/08/07 01:15:43;;;;;;;12.00;7.97;;;22.40;81.20;;;;;;5053009;28;20230;-63
2021/08/07 01:18:14;;;;;;;10.68;7.70;;;22.40;81.00;;;;;;5052779;28;20021;-63
2021/08/07 01:20:44;;;;;;;8.10;6.93;;;22.40;81.10;;;;;;5047990;28;20025;-63
2021/08/07 01:23:19;;;;;;;8.65;7.55;;;22.40;81.00;;;;;;5046316;28;20484;-63
2021/08/07 01:25:56;;;;;;;12.20;7.43;;;22.40;80.90;;;;;;5051829;28;20507;-63
2021/08/07 01:28:24;;;;;;;9.35;7.53;;;22.40;81.00;;;;;;5048817;28;20024;-63
2021/08/07 01:30:52;;;;;;;8.52;7.43;;;22.40;81.30;;;;;;5045359;28;20019;-63
2021/08/07 01:33:18;;;;;;;9.63;7.50;;;22.40;81.40;;;;;;5052523;28;20033;-63
2021/08/07 01:35:45;;;;;;;8.00;6.25;;;22.40;81.30;;;;;;5053008;28;20485;-63
2021/08/07 01:38:10;;;;;;;10.52;7.05;;;22.40;81.30;;;;;;5048786;28;20014;-63
2021/08/07 01:40:36;;;;;;;8.57;6.88;;;22.30;81.10;;;;;;5052377;28;20037;-63
2021/08/07 01:43:02;;;;;;;10.35;6.80;;;22.40;81.00;;;;;;5040893;28;20473;-63
2021/08/07 01:45:27;;;;;;;9.00;7.22;;;22.30;80.80;;;;;;5037015;28;20025;-63
2021/08/07 01:48:16;;;;;;;9.10;6.40;;;22.40;80.90;;;;;;5043340;28;20036;-63
2021/08/07 01:50:50;;;;;;;8.65;6.60;;;22.40;80.90;;;;;;5046508;28;20033;-63
2021/08/07 01:53:25;;;;;;;8.25;6.90;;;22.40;80.60;;;;;;5047078;28;20554;-63
2021/08/07 01:56:14;;;;;;;8.82;6.82;;;22.40;80.50;;;;;;5040531;28;20025;-63
2021/08/07 01:58:44;;;;;;;8.57;6.72;;;22.40;80.40;;;;;;5035011;28;20032;-63
2021/08/07 02:01:11;;;;;;;9.50;7.13;;;22.40;80.50;;;;;;5047489;28;20034;-63
2021/08/07 02:03:39;;;;;;;10.20;7.00;;;22.40;80.40;;;;;;5049530;28;20123;-63
2021/08/07 02:06:06;;;;;;;7.90;7.00;;;22.40;80.50;;;;;;5052101;28;20021;-63
2021/08/07 02:08:35;;;;;;;8.68;6.93;;;22.40;80.50;;;;;;5052235;28;20017;-63
2021/08/07 02:11:03;;;;;;;9.63;7.40;;;22.40;80.30;;;;;;5052250;28;20029;-63
2021/08/07 02:13:29;;;;;;;9.18;7.68;;;22.40;80.30;;;;;;5047252;28;20500;-63
2021/08/07 02:15:55;;;;;;;11.93;7.18;;;22.40;80.20;;;;;;5052377;28;20473;-63
2021/08/07 02:18:23;;;;;;;10.15;6.45;;;22.40;80.10;;;;;;5051973;28;20036;-63
2021/08/07 02:20:50;;;;;;;9.35;8.13;;;22.30;80.10;;;;;;5052636;28;20384;-63
2021/08/07 02:23:17;;;;;;;11.25;7.13;;;22.40;80.20;;;;;;5052199;28;20017;-63
2021/08/07 02:25:44;;;;;;;11.85;7.60;;;22.40;79.90;;;;;;5037985;28;20038;-63
2021/08/07 02:28:13;;;;;;;9.52;6.60;;;22.40;80.00;;;;;;5039252;28;20421;-63
2021/08/07 02:30:40;;;;;;;10.82;7.53;;;22.40;80.10;;;;;;5043364;28;20424;-63
2021/08/07 02:33:07;;;;;;;8.68;6.80;;;22.40;79.90;;;;;;5052154;28;20029;-63
2021/08/07 02:35:35;;;;;;;9.77;6.57;;;22.40;80.50;;;;;;5052062;28;20131;-63
2021/08/07 02:38:02;;;;;;;7.35;6.43;;;22.30;80.00;;;;;;5049864;28;20017;-63
2021/08/07 02:40:28;;;;;;;10.57;6.72;;;22.30;79.90;;;;;;5024696;28;20029;-63
2021/08/07 02:42:55;;;;;;;8.40;7.05;;;22.20;80.10;;;;;;5048707;28;20116;-63
2021/08/07 02:45:21;;;;;;;9.10;6.88;;;22.20;80.10;;;;;;5045757;28;20025;-63
2021/08/07 02:47:47;;;;;;;8.45;6.30;;;22.20;80.50;;;;;;5043870;28;20412;-63
2021/08/07 02:50:14;;;;;;;8.68;6.05;;;22.10;80.40;;;;;;5050741;28;20013;-63
2021/08/07 02:52:40;;;;;;;9.45;6.70;;;22.10;80.30;;;;;;5041915;28;20112;-63
2021/08/07 02:55:06;;;;;;;9.82;6.60;;;22.10;80.30;;;;;;5048103;28;20026;-63
2021/08/07 02:57:32;;;;;;;7.82;6.25;;;22.00;80.30;;;;;;5051759;28;20025;-63
2021/08/07 02:59:58;;;;;;;7.25;6.40;;;22.00;80.50;;;;;;5046591;28;20033;-63
2021/08/07 03:02:25;;;;;;;7.68;6.57;;;22.00;80.70;;;;;;5040175;28;20029;-63
2021/08/07 03:04:50;;;;;;;10.70;6.78;;;21.90;80.80;;;;;;5043310;28;20087;-63
2021/08/07 03:07:17;;;;;;;9.60;6.68;;;21.90;80.70;;;;;;5051785;28;20068;-63
2021/08/07 03:09:42;;;;;;;9.57;6.70;;;21.90;80.60;;;;;;5054515;28;20074;-63
2021/08/07 03:12:08;;;;;;;8.27;6.53;;;21.90;81.00;;;;;;5055408;28;20021;-63
2021/08/07 03:14:34;;;;;;;9.25;6.90;;;21.80;80.80;;;;;;5038084;28;20465;-63
2021/08/07 03:17:00;;;;;;;7.47;6.63;;;21.80;81.00;;;;;;5054121;28;20017;-63
2021/08/07 03:19:25;;;;;;;7.88;6.88;;;21.80;81.10;;;;;;5055351;28;20029;-63
2021/08/07 03:21:51;;;;;;;8.15;6.50;;;21.80;81.20;;;;;;5048933;28;20477;-63
2021/08/07 03:24:17;;;;;;;8.45;6.45;;;21.80;81.30;;;;;;5054978;28;20444;-63
2021/08/07 03:26:42;;;;;;;8.98;5.97;;;21.80;81.40;;;;;;5041028;28;20029;-63
2021/08/07 03:29:08;;;;;;;9.40;6.07;;;21.80;81.40;;;;;;5052804;28;20321;-63
2021/08/07 03:31:34;;;;;;;7.38;6.10;;;21.80;81.50;;;;;;5055268;28;20025;-63
2021/08/07 03:33:59;;;;;;;8.77;7.35;;;21.80;81.60;;;;;;5054888;28;20526;-63
2021/08/07 03:36:25;;;;;;;10.88;6.45;;;21.80;81.70;;;;;;5053150;28;20028;-63
2021/08/07 03:38:51;;;;;;;6.82;5.55;;;21.80;81.70;;;;;;5042303;28;20103;-63
2021/08/07 03:41:16;;;;;;;9.60;6.40;;;21.80;81.60;;;;;;5054689;28;20025;-63
2021/08/07 03:43:42;;;;;;;8.23;6.95;;;21.80;81.90;;;;;;5044650;28;20121;-63
2021/08/07 03:46:08;;;;;;;7.43;6.25;;;21.80;82.00;;;;;;5034232;28;20105;-63
2021/08/07 03:48:34;;;;;;;7.90;7.05;;;21.80;82.10;;;;;;5053548;28;20517;-63
2021/08/07 03:50:59;;;;;;;10.45;6.05;;;21.90;82.00;;;;;;5047250;28;20450;-63
2021/08/07 03:53:25;;;;;;;8.48;6.32;;;21.90;82.10;;;;;;5052633;28;20029;-63
2021/08/07 03:55:51;;;;;;;8.05;5.80;;;21.90;82.10;;;;;;5046579;28;20384;-63
2021/08/07 03:58:16;;;;;;;7.45;6.40;;;22.00;82.20;;;;;;5052004;28;20060;-63
2021/08/07 04:00:42;;;;;;;8.45;6.15;;;22.00;82.10;;;;;;5046852;28;20470;-63
2021/08/07 04:03:07;;;;;;;7.45;6.45;;;22.10;82.10;;;;;;5049642;28;20105;-63
2021/08/07 04:05:34;;;;;;;6.60;5.72;;;22.20;82.00;;;;;;5054374;28;20138;-63
2021/08/07 04:08:11;;;;;;;7.57;6.13;;;22.20;82.60;;;;;;5054355;28;20023;-63
2021/08/07 04:10:38;;;;;;;6.65;5.55;;;22.30;81.70;;;;;;5049134;28;20025;-63
2021/08/07 04:13:04;;;;;;;7.03;5.80;;;22.40;81.80;;;;;;5050884;28;20045;-63
2021/08/07 04:15:30;;;;;;;7.63;5.90;;;22.50;81.70;;;;;;5049747;28;20033;-63
2021/08/07 04:17:56;;;;;;;7.85;6.18;;;22.70;81.30;;;;;;5050466;28;20040;-63
2021/08/07 04:20:22;;;;;;;7.30;6.38;;;22.90;80.80;;;;;;5052945;28;20037;-63
2021/08/07 04:22:48;;;;;;;7.35;6.22;;;23.20;80.30;;;;;;5053984;28;20079;-63
2021/08/07 04:25:14;;;;;;;7.18;6.20;;;23.30;79.60;;;;;;5052193;28;20370;-63
2021/08/07 04:27:40;;;;;;;8.52;5.88;;;23.50;79.20;;;;;;5044468;28;20029;-63
2021/08/07 04:30:07;;;;;;;7.05;5.80;;;23.60;78.50;;;;;;5050045;28;20703;-63
2021/08/07 04:32:33;;;;;;;8.70;6.13;;;23.70;78.40;;;;;;5053878;28;20028;-63
2021/08/07 04:34:59;;;;;;;7.22;5.75;;;23.70;78.00;;;;;;5053474;28;20024;-63
2021/08/07 04:37:25;;;;;;;7.63;6.00;;;23.70;78.20;;;;;;5053595;28;20017;-63
2021/08/07 04:39:51;;;;;;;7.88;6.88;;;23.70;78.30;;;;;;5052380;28;20021;-63
2021/08/07 04:42:17;;;;;;;7.25;5.68;;;23.80;78.10;;;;;;5041312;28;20025;-63
2021/08/07 04:44:43;;;;;;;9.30;7.30;;;23.90;77.80;;;;;;5034461;28;20086;-63
2021/08/07 04:47:09;;;;;;;8.05;6.28;;;23.90;77.70;;;;;;5042294;28;20021;-63
2021/08/07 04:49:35;;;;;;;7.60;6.78;;;24.10;77.50;;;;;;5026933;28;20454;-63
2021/08/07 04:52:01;;;;;;;8.20;7.13;;;24.20;77.30;;;;;;5045592;28;20025;-63
2021/08/07 04:54:27;;;;;;;7.05;6.32;;;24.40;77.00;;;;;;5053612;28;20056;-63
2021/08/07 04:56:52;;;;;;;8.60;6.72;;;24.60;76.60;;;;;;5051474;28;20442;-63
2021/08/07 04:59:18;;;;;;;8.88;7.88;;;24.70;75.90;;;;;;5033167;28;20064;-63
2021/08/07 05:01:44;;;;;;;10.07;8.40;;;24.70;75.20;;;;;;5052915;28;20377;-63
2021/08/07 05:04:12;;;;;;;11.80;8.43;;;24.50;75.30;;;;;;5053267;28;20437;-63
2021/08/07 05:06:44;;;;;;;10.75;9.60;;;24.40;75.30;;;;;;5053058;28;20092;-63
2021/08/07 05:09:10;;;;;;;11.68;9.77;;;24.20;75.50;;;;;;5053408;28;20469;-63
2021/08/07 05:11:36;;;;;;;15.38;11.82;;;24.10;75.80;;;;;;5053033;28;20036;-63
2021/08/07 05:14:02;;;;;;;15.23;12.20;;;23.90;75.80;;;;;;5039248;28;20499;-63
2021/08/07 05:16:28;;;;;;;14.70;12.95;;;23.80;76.50;;;;;;5032653;28;20021;-63
2021/08/07 05:18:53;;;;;;;20.00;16.33;;;23.60;77.10;;;;;;5041023;28;20018;-63
2021/08/07 05:21:19;;;;;;;21.55;17.00;;;23.40;77.10;;;;;;5045325;28;20035;-63
2021/08/07 05:23:45;;;;;;;23.27;17.88;;;23.30;77.30;;;;;;5051591;28;20098;-63
2021/08/07 05:26:10;;;;;;;25.50;18.55;;;23.20;77.60;;;;;;5052809;28;20076;-63
2021/08/07 05:28:36;;;;;;;21.45;17.15;;;23.10;77.90;;;;;;5045528;28;20508;-63
2021/08/07 05:31:01;;;;;;;23.80;18.92;;;23.00;78.30;;;;;;5035308;28;20021;-63
2021/08/07 05:33:27;;;;;;;25.25;18.33;;;22.90;78.60;;;;;;5048427;28;20032;-63
2021/08/07 05:35:53;;;;;;;25.27;19.65;;;22.90;78.90;;;;;;5052701;28;20032;-63
2021/08/07 05:38:18;;;;;;;26.38;19.35;;;22.80;78.90;;;;;;5048993;28;20017;-63
2021/08/07 05:40:44;;;;;;;28.75;20.92;;;22.70;79.10;;;;;;5052604;28;20505;-63
2021/08/07 05:43:10;;;;;;;24.63;18.52;;;22.60;79.40;;;;;;5047430;28;20032;-63
2021/08/07 05:45:36;;;;;;;23.75;18.08;;;22.50;79.50;;;;;;5043265;28;20032;-63
2021/08/07 05:48:01;;;;;;;30.00;21.33;;;22.50;79.80;;;;;;5033761;28;20033;-63
2021/08/07 05:50:27;;;;;;;32.80;21.20;;;22.40;80.10;;;;;;5047062;28;20495;-63
2021/08/07 05:52:53;;;;;;;27.17;20.27;;;22.30;80.40;;;;;;5042341;28;20025;-63
2021/08/07 05:55:19;;;;;;;25.45;20.85;;;22.30;80.70;;;;;;5052227;28;20104;-63
2021/08/07 05:57:44;;;;;;;26.60;19.60;;;22.20;81.00;;;;;;5052441;28;20060;-63
2021/08/07 06:00:10;;;;;;;32.53;20.88;;;22.20;81.20;;;;;;5042982;28;20025;-63
2021/08/07 06:02:36;;;;;;;27.35;20.05;;;22.20;81.30;;;;;;5038970;28;20033;-63
2021/08/07 06:05:02;;;;;;;28.02;20.00;;;22.20;81.50;;;;;;5049314;28;20036;-63
2021/08/07 06:07:27;;;;;;;28.27;20.15;;;22.20;81.50;;;;;;5038236;28;20021;-63
2021/08/07 06:09:53;;;;;;;27.38;19.30;;;22.20;81.70;;;;;;5052589;28;20108;-63
2021/08/07 06:12:19;;;;;;;26.48;19.95;;;22.20;82.00;;;;;;5052323;28;20037;-63
2021/08/07 06:14:44;;;;;;;29.00;21.45;;;22.20;82.10;;;;;;5045740;28;20098;-63
2021/08/07 06:17:11;;;;;;;27.17;19.52;;;22.30;82.60;;;;;;5032805;28;20029;-63
2021/08/07 06:19:36;;;;;;;23.95;18.45;;;22.40;82.70;;;;;;5022107;28;20108;-63
2021/08/07 06:22:03;;;;;;;21.75;18.52;;;22.50;82.50;;;;;;5041525;28;20045;-63
2021/08/07 06:24:29;;;;;;;22.23;18.10;;;22.60;82.20;;;;;;5041612;28;20129;-63
2021/08/07 06:26:55;;;;;;;18.30;15.98;;;22.80;82.00;;;;;;5046678;28;20033;-63
2021/08/07 06:29:21;;;;;;;24.08;18.85;;;22.90;81.50;;;;;;5051609;28;20021;-63
2021/08/07 06:31:47;;;;;;;20.77;16.63;;;23.00;81.20;;;;;;5048595;28;20112;-63
2021/08/07 06:34:12;;;;;;;20.45;16.83;;;23.10;81.20;;;;;;5043723;28;20091;-63
2021/08/07 06:36:38;;;;;;;18.30;15.98;;;23.20;81.00;;;;;;5042751;28;20025;-63
2021/08/07 06:39:05;;;;;;;19.05;14.52;;;23.30;80.90;;;;;;5031114;28;20148;-63
2021/08/07 06:41:31;;;;;;;19.25;16.30;;;23.40;80.60;;;;;;5051186;28;20131;-63
2021/08/07 06:43:56;;;;;;;16.35;14.45;;;23.50;80.40;;;;;;5039668;28;20109;-63
2021/08/07 06:46:22;;;;;;;16.00;13.77;;;23.60;80.30;;;;;;5038346;28;20033;-63
2021/08/07 06:48:48;;;;;;;16.85;14.52;;;23.60;80.30;;;;;;5035066;28;20032;-63
2021/08/07 06:51:13;;;;;;;15.25;13.10;;;23.70;80.20;;;;;;5047701;28;20028;-63
2021/08/07 06:53:40;;;;;;;14.73;12.70;;;23.80;79.90;;;;;;5055727;28;20384;-63
2021/08/07 06:56:06;;;;;;;14.23;12.73;;;23.90;79.50;;;;;;5053601;28;20100;-63
2021/08/07 06:58:31;;;;;;;12.80;11.10;;;24.00;79.40;;;;;;5048603;28;20068;-63
2021/08/07 07:00:57;;;;;;;14.95;11.30;;;24.10;79.10;;;;;;5042548;28;20048;-63
2021/08/07 07:03:23;;;;;;;13.43;11.77;;;24.20;79.30;;;;;;5046221;28;20123;-63
2021/08/07 07:05:48;;;;;;;12.88;11.48;;;24.30;78.40;;;;;;5049187;28;20029;-63
2021/08/07 07:08:14;;;;;;;12.63;11.32;;;24.40;78.20;;;;;;5054597;28;20392;-63
2021/08/07 07:10:40;;;;;;;11.38;10.27;;;24.50;78.10;;;;;;5046611;28;20025;-63
2021/08/07 07:13:06;;;;;;;9.63;8.70;;;24.60;77.90;;;;;;5041827;28;20470;-63
2021/08/07 07:15:32;;;;;;;9.43;8.52;;;24.70;77.50;;;;;;5044882;28;20368;-63
2021/08/07 07:17:58;;;;;;;8.00;7.20;;;24.70;77.00;;;;;;5049794;28;20045;-63
2021/08/07 07:20:24;;;;;;;9.90;7.95;;;24.80;77.00;;;;;;5044123;28;20083;-63
2021/08/07 07:22:50;;;;;;;7.75;7.05;;;24.80;76.70;;;;;;5050323;28;20482;-63
2021/08/07 07:25:17;;;;;;;7.93;7.15;;;24.90;76.50;;;;;;5054852;28;20469;-63
2021/08/07 07:27:43;;;;;;;7.65;6.90;;;25.00;76.00;;;;;;5055027;28;20051;-63
2021/08/07 07:30:10;;;;;;;7.47;6.78;;;25.00;75.80;;;;;;5034396;28;20151;-63
2021/08/07 07:32:36;;;;;;;7.18;6.30;;;25.10;74.90;;;;;;5042759;28;20025;-63
2021/08/07 07:35:03;;;;;;;6.80;6.10;;;25.10;74.60;;;;;;5035812;28;20024;-63
2021/08/07 07:37:29;;;;;;;7.85;6.80;;;25.10;74.00;;;;;;5046058;28;20025;-63
2021/08/07 07:39:55;;;;;;;7.75;5.75;;;25.10;74.20;;;;;;5035046;28;20017;-63
2021/08/07 07:42:21;;;;;;;6.45;5.57;;;25.10;73.80;;;;;;5045822;28;20060;-63
2021/08/07 07:44:46;;;;;;;5.93;5.32;;;25.10;73.90;;;;;;5039299;28;20126;-63
2021/08/07 07:47:12;;;;;;;5.85;5.25;;;25.10;73.50;;;;;;5040139;28;20121;-63
2021/08/07 07:49:38;;;;;;;5.97;5.38;;;25.10;73.00;;;;;;5051041;28;20078;-63
2021/08/07 07:52:04;;;;;;;6.07;5.47;;;25.10;72.90;;;;;;5037526;28;20033;-63
2021/08/07 07:54:29;;;;;;;6.45;5.50;;;25.00;72.90;;;;;;5052889;28;20037;-63
2021/08/07 07:56:55;;;;;;;6.78;5.15;;;25.00;72.90;;;;;;5045281;28;20045;-63
2021/08/07 07:59:21;;;;;;;5.95;5.30;;;25.00;72.80;;;;;;5045648;28;20029;-63
2021/08/07 08:01:46;;;;;;;5.60;5.00;;;25.00;72.90;;;;;;5053660;28;20055;-63
2021/08/07 08:04:12;;;;;;;6.82;5.00;;;25.00;72.60;;;;;;5050233;28;20022;-63
2021/08/07 08:06:38;;;;;;;7.28;5.05;;;24.90;72.70;;;;;;5043831;28;20029;-63
2021/08/07 08:09:03;;;;;;;6.35;4.95;;;24.90;72.60;;;;;;5048073;28;20021;-63
2021/08/07 08:11:29;;;;;;;6.45;4.72;;;24.90;72.50;;;;;;5048971;28;20104;-63
2021/08/07 08:13:55;;;;;;;7.47;5.50;;;24.90;72.60;;;;;;5042565;28;20037;-63
2021/08/07 08:16:21;;;;;;;5.57;5.05;;;24.90;72.20;;;;;;5047618;28;20021;-63
2021/08/07 08:18:46;;;;;;;6.18;5.20;;;24.90;72.10;;;;;;5046647;28;20087;-63
2021/08/07 08:21:12;;;;;;;5.00;4.50;;;25.00;71.90;;;;;;5049102;28;20054;-63
2021/08/07 08:23:38;;;;;;;6.38;5.00;;;25.00;72.00;;;;;;5042155;28;20036;-63
2021/08/07 08:26:03;;;;;;;6.03;4.97;;;25.00;71.80;;;;;;5050306;28;20048;-63
2021/08/07 08:28:29;;;;;;;7.13;5.07;;;25.00;71.90;;;;;;5047684;28;20030;-63
2021/08/07 08:30:55;;;;;;;6.00;4.50;;;25.10;71.50;;;;;;5048938;28;20107;-63
2021/08/07 08:33:21;;;;;;;6.70;4.55;;;25.10;71.10;;;;;;5045446;28;20025;-63
2021/08/07 08:35:46;;;;;;;6.15;5.20;;;25.10;70.80;;;;;;5051000;28;20029;-63
2021/08/07 08:38:13;;;;;;;5.47;4.30;;;25.20;70.40;;;;;;5037549;28;20465;-63
2021/08/07 08:40:39;;;;;;;5.18;4.53;;;25.20;69.80;;;;;;5035341;28;20409;-63
2021/08/07 08:43:05;;;;;;;5.15;4.57;;;25.20;69.50;;;;;;5045796;28;20083;-63
2021/08/07 08:45:30;;;;;;;6.32;4.47;;;25.20;69.40;;;;;;5036893;28;20136;-63
2021/08/07 08:47:56;;;;;;;6.43;4.13;;;25.20;69.50;;;;;;5034029;28;20029;-63
2021/08/07 08:50:22;;;;;;;7.38;4.60;;;25.20;69.30;;;;;;5026692;28;20028;-63
2021/08/07 08:52:49;;;;;;;5.75;4.72;;;25.20;69.70;;;;;;5051067;28;20024;-63
2021/08/07 08:55:15;;;;;;;7.35;4.72;;;25.20;69.40;;;;;;5042057;28;20033;-63
2021/08/07 08:57:41;;;;;;;5.55;4.40;;;25.30;69.50;;;;;;5047839;28;20082;-63
2021/08/07 09:00:09;;;;;;;5.60;4.63;;;25.20;69.20;;;;;;5032960;28;20675;-63
2021/08/07 09:02:36;;;;;;;5.13;4.50;;;25.30;69.70;;;;;;5033382;28;20124;-63
2021/08/07 09:05:03;;;;;;;4.70;4.05;;;25.20;69.70;;;;;;5053342;28;20107;-63
2021/08/07 09:07:28;;;;;;;5.38;4.30;;;25.20;69.70;;;;;;5040551;28;20025;-63
2021/08/07 09:09:56;;;;;;;4.47;4.07;;;25.20;69.60;;;;;;5048372;28;20495;-63
2021/08/07 09:12:39;;;;;;;5.00;4.50;;;25.10;69.30;;;;;;5037938;28;20025;-63
2021/08/07 09:15:07;;;;;;;4.90;4.40;;;25.10;69.00;;;;;;5032578;28;20025;-63
2021/08/07 09:17:32;;;;;;;4.88;4.47;;;25.00;69.80;;;;;;5047588;28;20504;-63
2021/08/07 09:19:59;;;;;;;4.82;4.20;;;25.00;69.20;;;;;;5053202;28;20025;-63
2021/08/07 09:22:33;;;;;;;4.75;4.03;;;24.90;69.30;;;;;;5053337;28;20025;-63
2021/08/07 09:25:16;;;;;;;4.80;4.30;;;24.90;69.40;;;;;;5052603;28;20094;-63
2021/08/07 09:27:45;;;;;;;6.20;4.50;;;24.80;69.50;;;;;;5034936;28;20116;-63
2021/08/07 09:30:17;;;;;;;5.00;4.50;;;24.80;69.60;;;;;;5040802;28;20017;-63
2021/08/07 09:32:52;;;;;;;4.82;4.30;;;24.80;69.50;;;;;;5052724;28;20086;-63
2021/08/07 09:35:32;;;;;;;6.22;3.97;;;24.80;69.60;;;;;;5044666;28;20032;-63
2021/08/07 09:38:09;;;;;;;4.47;3.40;;;24.80;69.40;;;;;;5050868;28;20107;-63
2021/08/07 09:40:57;;;;;;;3.25;2.95;;;24.80;68.40;;;;;;5044588;28;20029;-63
2021/08/07 09:43:31;;;;;;;3.30;3.03;;;24.70;68.20;;;;;;5033301;28;20030;-63
2021/08/07 09:45:58;;;;;;;3.38;3.08;;;24.70;67.80;;;;;;5033428;28;20103;-63
2021/08/07 09:48:30;;;;;;;3.47;3.17;;;24.70;67.80;;;;;;5052519;28;20016;-63
2021/08/07 09:50:56;;;;;;;4.18;3.00;;;24.70;67.60;;;;;;5045566;28;20112;-63
2021/08/07 09:53:27;;;;;;;4.35;3.40;;;24.70;67.60;;;;;;5045474;28;20037;-63
2021/08/07 09:55:58;;;;;;;;;;;24.70;67.70;;;;;;5052845;28;20036;-63
2021/08/07 09:58:24;;;;;;;3.15;2.85;;;24.60;67.60;;;;;;5038160;28;20332;-63
2021/08/07 10:00:50;;;;;;;3.70;3.28;;;24.60;67.70;;;;;;5037714;28;20052;-63
2021/08/07 10:03:21;;;;;;;3.88;3.08;;;24.60;67.50;;;;;;5039575;28;20033;-63
2021/08/07 10:05:48;;;;;;;3.28;2.97;;;24.70;67.40;;;;;;5044103;28;20122;-63
2021/08/07 10:08:15;;;;;;;4.03;2.78;;;24.70;66.80;;;;;;5052170;28;20018;-63
2021/08/07 10:10:42;;;;;;;3.95;3.00;;;24.70;66.70;;;;;;5052306;28;20017;-63
2021/08/07 10:13:10;;;;;;;3.35;3.00;;;24.70;66.60;;;;;;5046341;28;20377;-63
2021/08/07 10:15:41;;;;;;;3.50;2.63;;;24.70;66.50;;;;;;5019880;28;20034;-63
2021/08/07 10:18:07;;;;;;;2.72;2.45;;;24.70;65.50;;;;;;5029202;28;20384;-63
2021/08/07 10:20:35;;;;;;;3.10;2.80;;;24.70;65.00;;;;;;5056317;28;20036;-63
2021/08/07 10:23:01;;;;;;;2.70;2.50;;;24.70;64.60;;;;;;5056318;28;20177;-63
2021/08/07 10:25:28;;;;;;;2.60;2.40;;;24.70;64.60;;;;;;5056069;28;20037;-63
2021/08/07 10:27:58;;;;;;;2.78;2.58;;;24.80;64.80;;;;;;5054517;28;20372;-63
2021/08/07 10:30:24;;;;;;;;;;;24.80;64.80;;;;;;5036530;28;20029;-63
2021/08/07 10:32:53;;;;;;;4.63;3.00;;;24.80;64.90;;;;;;5050755;28;20261;-63
2021/08/07 10:35:22;;;;;;;3.90;2.92;;;24.80;65.10;;;;;;5056148;28;20052;-63
2021/08/07 10:37:50;;;;;;;4.65;2.97;;;24.80;65.00;;;;;;5055608;28;20029;-63
2021/08/07 10:40:16;;;;;;;3.58;2.72;;;25.00;65.00;;;;;;5045660;28;20429;-63
2021/08/07 10:42:45;;;;;;;2.67;2.47;;;25.00;64.70;;;;;;5051574;28;20353;-63
2021/08/07 10:45:11;;;;;;;2.88;2.65;;;25.10;64.50;;;;;;5045820;28;20385;-63
2021/08/07 10:47:45;;;;;;;3.13;2.72;;;25.20;64.70;;;;;;5052841;28;20102;-63
2021/08/07 10:50:28;;;;;;;2.97;2.67;;;25.20;64.20;;;;;;5052784;28;20078;-63
2021/08/07 10:53:06;;;;;;;2.67;2.38;;;25.30;64.10;;;;;;5055068;28;20086;-63
2021/08/07 10:55:48;;;;;;;2.90;2.65;;;25.30;64.20;;;;;;5055709;28;20465;-63
2021/08/07 10:58:36;;;;;;;3.95;2.55;;;25.30;64.00;;;;;;5044567;28;20029;-63
2021/08/07 11:01:23;;;;;;;2.78;2.58;;;25.30;64.20;;;;;;5045175;28;20033;-63
2021/08/07 11:03:52;;;;;;;2.90;2.70;;;25.30;64.20;;;;;;5049089;28;20376;-63
2021/08/07 11:06:18;;;;;;;2.90;2.70;;;25.30;64.40;;;;;;5051058;28;20449;-63
2021/08/07 11:08:45;;;;;;;2.70;2.50;;;25.30;64.10;;;;;;5055694;28;20485;-63
2021/08/07 11:11:30;;;;;;;2.90;2.70;;;25.30;63.90;;;;;;5055334;28;20386;-63
2021/08/07 11:14:20;;;;;;;2.80;2.58;;;25.30;63.80;;;;;;5040029;28;20535;-63
2021/08/07 11:17:06;;;;;;;2.97;2.50;;;25.20;64.00;;;;;;5031257;28;20021;-63
2021/08/07 11:19:56;;;;;;;2.97;2.78;;;25.20;64.30;;;;;;5026691;28;20025;-63
2021/08/07 11:22:37;;;;;;;3.28;2.88;;;25.20;64.00;;;;;;5041070;28;20036;-63
2021/08/07 11:25:05;;;;;;;;;;;25.20;64.50;;;;;;5053436;28;20064;-63
2021/08/07 11:30:17;;;;;;;2.85;2.65;;;25.20;64.20;;;;;;5052770;28;20112;-63
2021/08/07 11:33:06;;;;;;;2.42;2.25;;;25.10;64.00;;;;;;5046084;28;20377;-63
2021/08/07 11:35:38;;;;;;;2.80;2.60;;;25.20;63.40;;;;;;5048211;28;20362;-63
2021/08/07 11:40:44;;;;;;;2.88;2.47;;;25.20;62.70;;;;;;5049171;28;20028;-63
2021/08/07 11:43:24;;;;;;;3.10;2.80;;;25.20;62.60;;;;;;5054520;28;20025;-63
2021/08/07 11:45:59;;;;;;;3.22;2.67;;;25.20;62.30;;;;;;5039840;28;20116;-64
2021/08/07 11:48:27;;;;;;;2.75;2.55;;;25.20;62.10;;;;;;5054556;28;20497;-63
2021/08/07 11:50:54;;;;;;;2.20;2.10;;;25.30;62.00;;;;;;5052199;28;20062;-64
2021/08/07 11:53:22;;;;;;;2.50;2.30;;;25.40;61.80;;;;;;5043747;28;20025;-63
2021/08/07 11:56:09;;;;;;;2.67;2.47;;;25.40;61.40;;;;;;5051806;28;20021;-63
2021/08/07 11:58:49;;;;;;;2.60;2.40;;;25.40;61.20;;;;;;5043060;28;20030;-63
2021/08/07 12:01:16;;;;;;;;;;;25.40;60.70;;;;;;5029471;28;20051;-63
2021/08/07 12:03:50;;;;;;;2.67;2.10;;;25.40;60.60;;;;;;5054399;28;20435;-63
2021/08/07 12:06:21;;;;;;;2.47;2.15;;;25.40;61.10;;;;;;5053946;28;20028;-63
2021/08/07 12:08:48;;;;;;;2.00;1.90;;;25.40;60.90;;;;;;5054161;28;20358;-63
2021/08/07 12:11:16;;;;;;;2.10;2.00;;;25.40;60.50;;;;;;5050009;28;20025;-63
2021/08/07 12:13:46;;;;;;;2.50;2.10;;;25.40;60.00;;;;;;5047034;28;20036;-63
2021/08/07 12:16:14;;;;;;;2.00;1.90;;;25.50;59.90;;;;;;5030607;28;20048;-63
2021/08/07 12:18:47;;;;;;;3.70;2.05;;;25.50;59.90;;;;;;5053948;28;20033;-63
2021/08/07 12:21:36;;;;;;;2.42;2.22;;;25.50;59.50;;;;;;5053949;28;20032;-63
2021/08/07 12:24:16;;;;;;;2.08;1.92;;;25.50;59.10;;;;;;5042528;28;20492;-63
2021/08/07 12:26:46;;;;;;;2.40;2.20;;;25.50;59.20;;;;;;5053733;28;20020;-63
2021/08/07 12:29:16;;;;;;;3.35;2.50;;;25.50;59.30;;;;;;5052009;28;20013;-63
2021/08/07 12:31:42;;;;;;;2.50;2.33;;;25.50;59.30;;;;;;5053822;28;20059;-63
2021/08/07 12:34:34;;;;;;;2.47;2.28;;;25.50;59.20;;;;;;5053503;28;20476;-63
2021/08/07 12:37:10;;;;;;;2.40;2.20;;;25.50;59.10;;;;;;5042956;28;20117;-63
2021/08/07 12:39:56;;;;;;;2.53;2.33;;;25.40;59.00;;;;;;5039057;28;20370;-63
2021/08/07 12:42:24;;;;;;;2.80;2.50;;;25.40;59.00;;;;;;5049829;28;20040;-63
2021/08/07 12:45:09;;;;;;;2.70;2.50;;;25.40;59.00;;;;;;5037286;28;20037;-63
2021/08/07 12:47:35;;;;;;;2.67;2.30;;;25.40;59.20;;;;;;5044947;28;20127;-63
2021/08/07 12:50:16;;;;;;;7.35;2.63;;;25.30;59.20;;;;;;5053591;28;20079;-63
2021/08/07 12:53:08;;;;;;;2.60;2.42;;;25.30;59.30;;;;;;5053097;28;20569;-63
2021/08/07 12:55:49;;;;;;;2.38;2.20;;;25.20;59.10;;;;;;5052820;28;20493;-63